Terminal Aerodrome Forecast
Issued by NWS

Home | Current Version | Previous Version | Text Only | Print | Product List | Glossary Off
Versions: 1 2 3 4 5 6 7 8 9 10 11 12 13 14 15

000
FTUS43 KBIS 230500
TAFDIK
TAF
KDIK 230540Z 2306/2406 11022G30KT P6SM VCSH BKN080
     FM230700 11023G32KT P6SM -SHRA BKN050
     FM231200 13018G24KT P6SM OVC035
     FM231700 26022G32KT P6SM -SHRA OVC025
     FM232200 29020G30KT P6SM VCSH OVC025=

USA.gov is the U.S. government's official web portal to all federal, state and local government web resources and services.